Weather at Naujaat Airport

Public forecast

Using degrees Celsius for public forecast. Weather courtesy of forecast.io.

Current aviation weather report (METAR) for Naujaat Airport

Report is more than 2 hours old.

Retrieved 2021/02/27 21:00 UTC (3 hours ago):

CYUT 272100Z 34013KT 10SM DRSN BKN025 BKN040 M32/M37 A2927 RMK SC5SC2 LAST STFD OBS/NXT 281500Z SLP917

Aviation forecast (TAF) for Naujaat Airport

Forecast is more than 6 hours old.

Retrieved 2021/02/27 17:00 UTC (7 hours ago):

TAF CYUT 271638Z 2717/2721 36018KT 1SM -SN BLSN BKN040 TEMPO 2717/2719 3SM BLSN FM271900 33015KT 6SM BLSN SCT040 TEMPO 2719/2721 2SM -SN BLSN BKN040 RMK NXT FCST WILL BE ISSUED AT 281645Z